Rome, Italy
Current Conditions -  °F | °C
As of 9:50 PM on Saturday 25 Oct 2014 (Local Time) from LIRU Reporting Station
Clear Clear  
Wind Chill: 13°   Ceiling: Unl
Heat Index: 13°   Visibility: 6mi
Dew Point:   Wind: 6mph
Humidity: 58%   Direction: 360°N
Pressure: 30.06"   Gusts: NA
Location:  41.9°N, 12.48°E
Report Text: LIRU 251950Z 36005KT CAVOK 13/05 Q1018
Loading
Personal Weather Stations






























Interactive Weather Map
Tropical Storm Tracking
New forecast layout! Learn more

10-Day Weather Forecast

Advertisements
Track Severe Weather on mobile